Time;durP1;ratioP1;P1;durP2;ratioP2;P2;SDS_P1;SDS_P2;PMS_P1;PMS_P2;Temp;Humidity;BMP_temperature;BMP_pressure;BME280_temperature;BME280_humidity;BME280_pressure;Samples;Min_cycle;Max_cycle;Signal;HPM_P1;HPM_P2
2022/08/16 16:14:08;;;;;;;4.00;3.70;;;;;;;28.39;40.16;97475.22;5429747;23;20316;-66
2022/08/16 16:16:35;;;;;;;4.93;3.95;;;;;;;28.36;40.77;97473.81;4936917;29;20307;-67
2022/08/16 16:19:01;;;;;;;4.30;3.90;;;;;;;28.42;40.80;97477.50;4930271;29;20233;-67
2022/08/16 16:21:28;;;;;;;4.18;3.88;;;;;;;28.35;40.23;97474.84;4926790;29;20232;-66
2022/08/16 16:23:55;;;;;;;4.20;3.80;;;;;;;28.33;40.80;97478.84;4938824;29;20251;-67
2022/08/16 16:26:22;;;;;;;4.03;3.63;;;;;;;28.31;40.54;97470.09;4939863;29;20232;-66
2022/08/16 16:28:48;;;;;;;4.32;3.90;;;;;;;28.22;40.35;97471.47;4939338;29;20291;-66
2022/08/16 16:31:19;;;;;;;6.28;4.53;;;;;;;28.13;40.59;97462.03;4938780;29;20633;-69
2022/08/16 16:33:48;;;;;;;4.35;3.95;;;;;;;28.21;40.43;97464.41;4939615;29;20228;-62
2022/08/16 16:36:18;;;;;;;4.50;4.10;;;;;;;28.12;40.61;97466.63;4924304;29;20229;-68
2022/08/16 16:38:46;;;;;;;4.22;3.83;;;;;;;28.18;40.85;97462.16;4924918;29;20401;-68
2022/08/16 16:41:15;;;;;;;6.82;3.90;;;;;;;28.20;40.59;97463.56;4939698;29;20335;-68
2022/08/16 16:43:44;;;;;;;4.72;4.32;;;;;;;28.05;41.20;97470.47;4939394;29;20244;-67
2022/08/16 16:46:14;;;;;;;4.53;4.13;;;;;;;27.99;41.63;97465.97;4938725;29;20235;-66
2022/08/16 16:48:42;;;;;;;4.45;4.00;;;;;;;28.12;41.03;97466.63;4939005;29;20259;-65
2022/08/16 16:51:10;;;;;;;4.20;3.90;;;;;;;28.12;41.30;97463.91;4939494;29;20275;-63
2022/08/16 16:53:39;;;;;;;4.25;3.85;;;;;;;28.05;41.62;97455.03;4939107;29;20224;-64
2022/08/16 16:56:07;;;;;;;4.78;4.30;;;;;;;28.00;41.37;97456.78;4940004;29;20580;-63
2022/08/16 17:01:19;;;;;;;4.68;4.20;;;;;;;27.87;41.83;97465.09;4938320;29;20256;-64
2022/08/16 17:03:48;;;;;;;4.20;3.80;;;;;;;27.76;42.14;97465.88;4927313;29;20241;-64
2022/08/16 17:06:15;;;;;;;4.40;4.00;;;;;;;27.73;42.20;97460.88;4925597;29;20232;-64
2022/08/16 17:08:42;;;;;;;4.43;4.03;;;;;;;27.58;41.97;97465.91;4938899;29;20236;-65
2022/08/16 17:11:09;;;;;;;5.57;3.92;;;;;;;27.52;42.88;97469.53;4939169;29;20258;-66
2022/08/16 17:13:36;;;;;;;4.82;3.95;;;;;;;27.52;42.44;97461.38;4937981;29;20248;-63
2022/08/16 17:16:03;;;;;;;5.03;4.53;;;;;;;27.53;42.22;97465.75;4937078;29;20259;-63
2022/08/16 17:18:29;;;;;;;4.50;4.10;;;;;;;27.49;42.58;97469.97;4938261;29;20255;-62
2022/08/16 17:20:58;;;;;;;4.53;4.13;;;;;;;27.30;43.40;97473.75;4938624;29;20271;-63
2022/08/16 17:23:25;;;;;;;4.38;3.97;;;;;;;27.12;44.19;97467.50;4936509;29;20867;-63
2022/08/16 17:25:51;;;;;;;4.60;4.20;;;;;;;27.00;44.29;97475.53;4927668;29;20287;-63
2022/08/16 17:28:18;;;;;;;4.93;4.38;;;;;;;26.88;44.38;97466.47;4936969;29;20714;-63
2022/08/16 17:30:45;;;;;;;5.78;3.97;;;;;;;26.91;44.27;97466.03;4938269;29;20235;-64
2022/08/16 17:33:12;;;;;;;3.95;3.65;;;;;;;26.84;43.94;97459.84;4939435;29;20240;-63
2022/08/16 17:35:45;;;;;;;5.28;4.38;;;;;;;26.79;43.98;97462.41;4939281;29;20231;-63
2022/08/16 17:38:14;;;;;;;4.63;4.23;;;;;;;26.75;44.21;97465.78;4939423;29;20670;-63
2022/08/16 17:40:44;;;;;;;4.18;3.83;;;;;;;26.68;44.53;97468.53;4939384;29;20256;-63
2022/08/16 17:43:12;;;;;;;4.15;3.85;;;;;;;26.59;44.84;97463.63;4939231;29;20308;-64
2022/08/16 17:45:39;;;;;;;4.88;4.15;;;;;;;26.63;44.50;97473.81;4939366;29;20263;-64
2022/08/16 17:48:06;;;;;;;4.97;4.43;;;;;;;26.70;44.45;97471.84;4939201;29;20288;-64
2022/08/16 17:50:33;;;;;;;4.95;4.30;;;;;;;26.61;44.88;97470.50;4939288;29;20268;-64
2022/08/16 17:53:00;;;;;;;4.50;4.10;;;;;;;26.47;45.57;97479.75;4939326;29;20236;-64
2022/08/16 17:55:31;;;;;;;5.38;3.92;;;;;;;26.25;46.06;97480.34;4937515;29;20318;-64
2022/08/16 17:57:58;;;;;;;4.53;4.13;;;;;;;26.13;46.56;97476.66;4939149;29;20287;-64
2022/08/16 18:00:27;;;;;;;4.30;3.90;;;;;;;26.13;45.98;97474.81;4939270;29;20314;-64
2022/08/16 18:02:56;;;;;;;4.68;4.22;;;;;;;26.12;45.98;97478.56;4939174;29;20234;-63
2022/08/16 18:05:24;;;;;;;4.32;3.92;;;;;;;25.94;46.73;97483.88;4933713;29;20278;-63
2022/08/16 18:07:51;;;;;;;4.20;3.90;;;;;;;25.89;46.98;97477.41;4939086;29;20286;-63
2022/08/16 18:10:19;;;;;;;4.50;4.10;;;;;;;25.77;46.87;97477.28;4937653;29;20533;-63
2022/08/16 18:12:50;;;;;;;4.45;4.15;;;;;;;25.75;47.27;97478.56;4936209;29;20279;-63
2022/08/16 18:15:18;;;;;;;4.77;4.37;;;;;;;25.65;47.27;97473.59;4914173;29;20315;-65
2022/08/16 18:17:45;;;;;;;4.53;4.13;;;;;;;25.63;47.48;97475.72;4919017;29;20244;-64
2022/08/16 18:22:16;;;;;;;5.13;4.65;;;;;;;25.55;47.24;97472.41;4911674;29;20277;-63
2022/08/16 18:23:05;;;;;;;4.47;4.00;;;;;;;25.50;47.47;97473.06;4906328;29;20541;-64
2022/08/16 18:25:32;;;;;;;4.50;4.10;;;;;;;25.40;48.08;97488.91;4922911;29;20240;-66
2022/08/16 18:28:00;;;;;;;4.72;4.32;;;;;;;25.37;47.95;97486.63;4921863;29;20276;-64
2022/08/16 18:30:27;;;;;;;4.75;4.18;;;;;;;25.33;47.96;97485.41;4922580;29;20229;-64
2022/08/16 18:32:55;;;;;;;5.70;4.37;;;;;;;25.16;48.54;97484.19;4919884;29;20229;-63
2022/08/16 18:35:22;;;;;;;4.23;3.93;;;;;;;24.95;49.38;97487.16;4921960;29;20228;-63
2022/08/16 18:37:48;;;;;;;4.37;3.97;;;;;;;24.85;49.76;97483.19;4922760;29;20530;-63
2022/08/16 18:40:17;;;;;;;4.77;4.37;;;;;;;24.78;49.80;97483.22;4922113;29;20252;-63
2022/08/16 18:42:54;;;;;;;4.60;4.20;;;;;;;24.77;50.20;97489.69;4918976;29;20292;-64
2022/08/16 18:45:22;;;;;;;4.97;4.33;;;;;;;24.76;49.83;97492.59;4922449;29;20280;-64
2022/08/16 18:47:49;;;;;;;4.57;4.17;;;;;;;24.66;50.49;97497.56;4920953;29;20229;-63
2022/08/16 18:50:16;;;;;;;5.33;4.17;;;;;;;24.59;50.54;97483.25;4921301;29;20236;-63
2022/08/16 18:52:54;;;;;;;4.60;4.20;;;;;;;24.61;50.26;97495.50;4922222;29;20289;-63
2022/08/16 18:55:21;;;;;;;4.80;4.40;;;;;;;24.58;50.63;97492.41;4922170;29;20233;-63
2022/08/16 18:57:49;;;;;;;4.30;3.87;;;;;;;24.49;50.79;97494.44;4921504;29;20315;-63
2022/08/16 19:00:20;;;;;;;4.97;4.50;;;;;;;24.36;51.32;97493.59;4921985;29;20320;-66
2022/08/16 19:02:48;;;;;;;5.07;4.57;;;;;;;24.22;51.89;97500.88;4909715;29;20645;-66
2022/08/16 19:05:21;;;;;;;4.57;4.27;;;;;;;24.05;52.77;97499.59;4921519;29;20804;-65
2022/08/16 19:07:48;;;;;;;4.80;4.40;;;;;;;23.85;53.73;97504.09;4922091;29;20588;-65
2022/08/16 19:10:16;;;;;;;5.10;4.60;;;;;;;23.86;53.24;97500.38;4921831;29;20581;-66
2022/08/16 19:12:42;;;;;;;5.17;4.30;;;;;;;23.81;53.63;97502.00;4921165;29;20225;-65
2022/08/16 19:15:13;;;;;;;4.60;4.20;;;;;;;23.68;54.30;97501.97;4938915;29;20256;-66
2022/08/16 19:17:40;;;;;;;4.43;4.03;;;;;;;23.54;55.10;97506.47;4941737;29;20228;-66
2022/08/16 19:20:09;;;;;;;4.80;4.37;;;;;;;23.46;55.22;97509.34;4938710;29;20228;-66
2022/08/16 19:22:36;;;;;;;4.70;4.30;;;;;;;23.38;55.82;97517.63;4941507;29;20272;-66
2022/08/16 19:25:04;;;;;;;4.33;4.03;;;;;;;23.32;55.63;97514.88;4941399;29;20259;-66
2022/08/16 19:27:30;;;;;;;4.63;4.20;;;;;;;23.30;55.55;97517.81;4941394;29;20283;-66
2022/08/16 19:29:57;;;;;;;5.70;4.50;;;;;;;23.40;54.93;97512.84;4938703;29;20295;-66
2022/08/16 19:32:26;;;;;;;4.80;4.40;;;;;;;23.55;54.13;97513.56;4940988;29;20267;-66
2022/08/16 19:34:55;;;;;;;4.27;3.87;;;;;;;23.53;54.48;97521.00;4940617;29;20630;-66
2022/08/16 19:37:23;;;;;;;5.67;4.50;;;;;;;23.40;54.89;97520.13;4941263;29;20588;-66
2022/08/16 19:39:50;;;;;;;5.90;4.53;;;;;;;23.31;55.19;97522.16;4939412;29;20540;-66
2022/08/16 19:42:20;;;;;;;5.53;4.10;;;;;;;23.28;55.43;97527.94;4941262;29;20296;-66
2022/08/16 19:44:48;;;;;;;5.33;4.27;;;;;;;23.17;56.14;97533.88;4941150;29;20248;-67
2022/08/16 19:47:15;;;;;;;4.67;4.33;;;;;;;23.03;56.91;97529.41;4941069;29;20291;-66
2022/08/16 19:49:42;;;;;;;4.53;4.13;;;;;;;22.92;57.38;97529.97;4941015;29;20252;-67
2022/08/16 19:52:14;;;;;;;4.93;4.53;;;;;;;22.91;57.03;97527.50;4941031;29;20291;-67
2022/08/16 19:54:42;;;;;;;4.90;4.50;;;;;;;22.85;57.70;97520.19;4941064;29;20246;-66
2022/08/16 19:57:10;;;;;;;4.97;4.50;;;;;;;22.72;58.29;97520.91;4940934;29;20232;-66
2022/08/16 19:59:37;;;;;;;4.70;4.30;;;;;;;22.57;58.86;97522.88;4940954;29;20286;-67
2022/08/16 20:02:06;;;;;;;4.70;4.33;;;;;;;22.44;59.39;97517.38;4940856;29;20259;-67
2022/08/16 20:04:34;;;;;;;4.73;4.33;;;;;;;22.35;59.92;97518.50;4940721;29;20307;-66
2022/08/16 20:07:02;;;;;;;4.70;4.30;;;;;;;22.30;60.05;97523.63;4939064;29;20235;-65
2022/08/16 20:09:29;;;;;;;5.07;4.10;;;;;;;22.24;60.23;97527.09;4940712;29;20228;-66
2022/08/16 20:11:57;;;;;;;5.17;4.67;;;;;;;22.22;60.20;97529.16;4940783;29;20228;-66
2022/08/16 20:14:24;;;;;;;4.63;4.23;;;;;;;22.24;59.67;97545.13;4940700;29;20408;-66
2022/08/16 20:16:51;;;;;;;4.57;4.13;;;;;;;22.19;59.80;97534.91;4940696;29;20232;-66
2022/08/16 20:19:18;;;;;;;4.43;4.03;;;;;;;22.19;59.95;97529.53;4932769;29;20224;-66
2022/08/16 20:21:45;;;;;;;4.87;4.47;;;;;;;22.05;61.32;97529.59;4940436;29;20229;-66
2022/08/16 20:24:11;;;;;;;4.90;4.37;;;;;;;21.89;61.86;97528.00;4940498;29;20248;-66
2022/08/16 20:26:38;;;;;;;4.70;4.27;;;;;;;21.82;61.50;97537.03;4940624;29;20330;-66
2022/08/16 20:29:06;;;;;;;5.17;4.67;;;;;;;21.78;61.40;97536.59;4940416;29;20276;-66
2022/08/16 20:31:33;;;;;;;5.10;4.60;;;;;;;21.79;61.39;97532.00;4940432;29;20232;-66
2022/08/16 20:34:00;;;;;;;5.57;4.40;;;;;;;21.78;61.39;97539.28;4938599;29;20239;-68
2022/08/16 20:36:26;;;;;;;4.97;4.57;;;;;;;21.80;61.57;97549.81;4932759;29;20236;-66
2022/08/16 20:38:56;;;;;;;4.70;4.30;;;;;;;21.68;62.45;97536.03;4940110;29;20236;-66
2022/08/16 20:41:23;;;;;;;4.40;4.00;;;;;;;21.58;62.92;97538.16;4940387;29;20238;-66
2022/08/16 20:43:49;;;;;;;4.67;4.27;;;;;;;21.53;62.65;97548.63;4939922;29;20292;-66
2022/08/16 20:46:18;;;;;;;4.90;4.50;;;;;;;21.47;62.58;97544.00;4939867;29;20227;-66
2022/08/16 20:48:44;;;;;;;4.80;4.40;;;;;;;21.40;63.13;97548.47;4940117;29;20232;-66
2022/08/16 20:51:12;;;;;;;5.33;4.17;;;;;;;21.31;64.10;97549.59;4939952;29;20232;-66
2022/08/16 20:53:39;;;;;;;4.87;4.10;;;;;;;21.23;64.52;97544.34;4939865;29;20588;-66
2022/08/16 20:56:06;;;;;;;4.90;4.40;;;;;;;21.14;64.82;97544.59;4937702;29;20228;-66
2022/08/16 20:58:33;;;;;;;4.73;4.43;;;;;;;21.05;65.22;97543.88;4933307;29;20236;-65
2022/08/16 21:01:00;;;;;;;4.90;4.50;;;;;;;20.98;65.86;97545.59;4936422;29;20240;-65
2022/08/16 21:03:28;;;;;;;4.87;4.47;;;;;;;20.89;66.08;97537.81;4936723;29;20583;-65
2022/08/16 21:05:57;;;;;;;4.63;4.23;;;;;;;20.88;65.79;97547.75;4932006;29;20308;-67
2022/08/16 21:08:24;;;;;;;4.67;4.27;;;;;;;20.88;65.55;97546.91;4926602;29;20234;-66
2022/08/16 21:10:51;;;;;;;4.97;4.40;;;;;;;20.83;65.67;97539.38;4936571;29;20232;-66
2022/08/16 21:13:19;;;;;;;4.30;3.90;;;;;;;20.77;66.10;97541.94;4935448;29;20322;-66
2022/08/16 21:15:46;;;;;;;5.07;4.67;;;;;;;20.71;66.54;97543.53;4936473;29;20220;-67
2022/08/16 21:18:13;;;;;;;4.80;4.40;;;;;;;20.66;66.91;97545.91;4935185;29;20567;-67
2022/08/16 21:20:41;;;;;;;4.73;4.33;;;;;;;20.63;66.83;97546.31;4934816;29;20630;-66
2022/08/16 21:23:09;;;;;;;4.97;4.47;;;;;;;20.56;67.68;97548.06;4939519;29;20243;-65
2022/08/16 21:25:37;;;;;;;5.17;4.67;;;;;;;20.50;68.02;97550.63;4937650;29;20272;-65
2022/08/16 21:28:05;;;;;;;6.10;4.60;;;;;;;20.44;68.18;97544.13;4939509;29;20586;-64
2022/08/16 21:30:32;;;;;;;5.00;4.60;;;;;;;20.40;68.12;97547.34;4939618;29;20232;-66
2022/08/16 21:33:03;;;;;;;4.87;4.47;;;;;;;20.34;68.92;97551.59;4939415;29;20228;-64
2022/08/16 21:35:30;;;;;;;5.37;4.87;;;;;;;20.36;68.76;97546.06;4939352;29;20236;-66
2022/08/16 21:37:58;;;;;;;5.80;5.23;;;;;;;20.32;68.99;97556.31;4939233;29;20283;-65
2022/08/16 21:40:25;;;;;;;5.00;4.60;;;;;;;20.31;69.04;97554.63;4939282;29;20314;-66
2022/08/16 21:42:52;;;;;;;5.23;4.83;;;;;;;20.32;68.99;97560.84;4939241;29;20228;-65
2022/08/16 21:45:19;;;;;;;5.10;4.60;;;;;;;20.28;69.21;97555.00;4939092;29;20657;-65
2022/08/16 21:47:46;;;;;;;5.00;4.60;;;;;;;20.20;69.55;97568.47;4939294;29;20228;-65
2022/08/16 21:50:14;;;;;;;5.03;4.63;;;;;;;20.15;70.15;97562.81;4939241;29;20235;-65
2022/08/16 21:52:40;;;;;;;5.50;5.00;;;;;;;20.05;70.96;97559.50;4937607;29;20314;-64
2022/08/16 21:55:09;;;;;;;5.20;4.80;;;;;;;19.97;71.53;97564.91;4939197;29;20227;-66
2022/08/16 21:57:36;;;;;;;5.50;4.97;;;;;;;19.94;71.66;97562.56;4941958;29;20232;-64
2022/08/16 22:00:10;;;;;;;6.00;5.40;;;;;;;19.87;72.27;97567.00;4943170;29;20639;-65
2022/08/16 22:02:36;;;;;;;6.00;5.47;;;;;;;19.78;73.42;97565.38;4937381;29;20231;-64
2022/08/16 22:05:04;;;;;;;5.83;5.33;;;;;;;19.69;74.34;97558.38;4942890;29;20256;-65
2022/08/16 22:07:30;;;;;;;6.10;5.50;;;;;;;19.63;74.67;97563.63;4942931;29;20544;-64
2022/08/16 22:09:57;;;;;;;6.03;5.43;;;;;;;19.57;75.19;97573.19;4942924;29;20287;-65
2022/08/16 22:12:27;;;;;;;6.43;5.80;;;;;;;19.53;75.52;97569.22;4942810;29;20235;-66
2022/08/16 22:14:54;;;;;;;6.23;5.63;;;;;;;19.44;76.18;97572.91;4942864;29;20334;-66
2022/08/16 22:17:21;;;;;;;5.80;5.30;;;;;;;19.41;77.02;97569.75;4941082;29;20236;-64
2022/08/16 22:19:47;;;;;;;5.93;5.30;;;;;;;19.36;77.35;97577.47;4941280;29;20536;-64
2022/08/16 22:22:14;;;;;;;6.23;5.73;;;;;;;19.34;77.36;97564.28;4942681;29;20236;-65
2022/08/16 22:24:41;;;;;;;6.23;5.63;;;;;;;19.30;77.98;97570.97;4942517;29;20649;-65
2022/08/16 22:27:08;;;;;;;7.73;6.67;;;;;;;19.21;78.70;97568.50;4942563;29;20302;-65
2022/08/16 22:29:36;;;;;;;6.43;5.40;;;;;;;19.14;79.15;97567.50;4942564;29;20291;-65
2022/08/16 22:32:04;;;;;;;6.03;5.43;;;;;;;19.04;79.92;97567.69;4942511;29;20319;-65
2022/08/16 22:34:31;;;;;;;6.07;5.57;;;;;;;19.03;80.05;97579.38;4942417;29;20240;-65
2022/08/16 22:36:58;;;;;;;6.53;5.97;;;;;;;18.96;80.41;97580.28;4942485;29;20259;-65
2022/08/16 22:39:25;;;;;;;6.47;5.97;;;;;;;18.90;81.01;97584.44;4942479;29;20622;-65
2022/08/16 22:41:53;;;;;;;7.03;5.70;;;;;;;18.84;81.66;97582.44;4942419;29;20358;-65
2022/08/16 22:44:19;;;;;;;6.80;6.10;;;;;;;18.79;81.80;97589.34;4940782;29;20224;-65
2022/08/16 22:46:48;;;;;;;7.53;6.83;;;;;;;18.74;82.26;97589.84;4942292;29;20365;-65
2022/08/16 22:49:15;;;;;;;6.60;6.00;;;;;;;18.70;82.47;97582.31;4942212;29;20227;-65
2022/08/16 22:51:42;;;;;;;6.50;5.93;;;;;;;18.66;83.12;97584.47;4942225;29;20638;-64
2022/08/16 22:54:10;;;;;;;7.20;6.53;;;;;;;18.63;83.39;97584.00;4940654;29;20322;-65
2022/08/16 22:56:36;;;;;;;7.10;6.50;;;;;;;18.63;83.37;97579.50;4941391;29;20231;-65
2022/08/16 22:59:03;;;;;;;6.90;6.30;;;;;;;18.65;83.11;97574.78;4942097;29;20232;-64
2022/08/16 23:01:30;;;;;;;7.10;6.40;;;;;;;18.67;82.60;97580.84;4942041;29;20630;-65
2022/08/16 23:03:58;;;;;;;6.47;5.97;;;;;;;18.69;82.55;97578.81;4941992;29;20236;-65
2022/08/16 23:06:25;;;;;;;7.00;6.30;;;;;;;18.66;82.63;97573.78;4933831;29;20251;-65
2022/08/16 23:08:52;;;;;;;6.57;5.80;;;;;;;18.60;82.92;97577.13;4939881;29;20514;-65
2022/08/16 23:11:21;;;;;;;6.70;6.10;;;;;;;18.56;83.47;97567.78;4941966;29;20232;-65
2022/08/16 23:13:50;;;;;;;6.63;6.03;;;;;;;18.56;83.48;97566.94;4941667;29;20583;-64
2022/08/16 23:16:20;;;;;;;6.80;6.20;;;;;;;18.56;83.57;97566.94;4941760;29;20232;-64
2022/08/16 23:18:48;;;;;;;7.23;6.53;;;;;;;18.50;83.98;97567.63;4939325;29;20232;-65
2022/08/16 23:21:17;;;;;;;6.90;6.30;;;;;;;18.49;84.01;97571.28;4935932;29;20308;-65
2022/08/16 23:23:45;;;;;;;6.83;6.27;;;;;;;18.46;84.01;97567.13;4941691;29;20264;-65
2022/08/16 23:26:15;;;;;;;6.83;6.33;;;;;;;18.43;84.49;97562.13;4941534;29;20332;-65
2022/08/16 23:28:43;;;;;;;6.67;5.97;;;;;;;18.40;84.75;97572.31;4941458;29;20235;-65
2022/08/16 23:31:10;;;;;;;6.77;6.17;;;;;;;18.42;85.02;97564.94;4941512;29;20228;-65
2022/08/16 23:33:39;;;;;;;7.07;6.37;;;;;;;18.44;84.91;97555.75;4941482;29;20574;-65
2022/08/16 23:36:07;;;;;;;6.53;5.97;;;;;;;18.46;85.02;97551.06;4939651;29;20315;-65
2022/08/16 23:38:37;;;;;;;6.83;6.23;;;;;;;18.50;85.01;97552.41;4941364;29;20279;-64
2022/08/16 23:41:05;;;;;;;7.00;6.40;;;;;;;18.51;85.03;97554.06;4941377;29;20262;-65
2022/08/16 23:43:33;;;;;;;6.80;6.20;;;;;;;18.49;85.17;97553.41;4941252;29;20263;-65
2022/08/16 23:46:01;;;;;;;7.40;6.70;;;;;;;18.47;85.26;97547.38;4941245;29;20252;-65
2022/08/16 23:48:31;;;;;;;7.33;6.57;;;;;;;18.41;85.17;97548.03;4941201;29;20228;-65
2022/08/16 23:50:58;;;;;;;6.80;6.10;;;;;;;18.34;85.54;97543.56;4941144;29;20766;-65
2022/08/16 23:53:26;;;;;;;7.23;6.57;;;;;;;18.29;85.88;97537.84;4941089;29;20235;-64
2022/08/16 23:55:57;;;;;;;7.43;6.73;;;;;;;18.28;85.96;97534.31;4941167;29;20232;-65
2022/08/16 23:58:25;;;;;;;8.30;6.60;;;;;;;18.24;85.95;97535.66;4941031;29;20232;-64
